Terminal Aerodrome Forecast
Issued by NWS

Home | Current Version | Previous Version | Text Only | Print | Product List | Glossary On
Versions: 1 2 3 4 5 6 7 8 9 10 11 12 13 14 15
000
FTUS46 KSGX 042320
TAFSNA
TAF
KSNA 042320Z 0500/0524 26008KT P6SM FEW027 SCT050
     FM050200 24006KT P6SM SCT030
     FM050800 VRB04KT P6SM BKN030
     FM051600 VRB04KT P6SM BKN035
     FM052100 26009KT P6SM SCT035=

USA.gov is the U.S. government's official web portal to all federal, state and local government web resources and services.